sensor_id;sensor_type;location;lat;lon;timestamp;temperature;humidity
21417;DHT22;10869;52.238;10.716;2022-09-17T03:01:48;11.20;99.90
21417;DHT22;10869;52.238;10.716;2022-09-17T03:04:17;11.20;99.90
21417;DHT22;10869;52.238;10.716;2022-09-17T03:06:45;11.10;99.90
21417;DHT22;10869;52.238;10.716;2022-09-17T03:09:13;11.10;99.90
21417;DHT22;10869;52.238;10.716;2022-09-17T03:11:40;11.10;99.90
21417;DHT22;10869;52.238;10.716;2022-09-17T03:14:06;11.10;99.90
21417;DHT22;10869;52.238;10.716;2022-09-17T03:16:32;11.10;99.90
21417;DHT22;10869;52.238;10.716;2022-09-17T03:18:58;11.10;99.90
21417;DHT22;10869;52.238;10.716;2022-09-17T03:21:24;11.10;99.90
21417;DHT22;10869;52.238;10.716;2022-09-17T03:23:50;11.10;99.90
21417;DHT22;10869;52.238;10.716;2022-09-17T03:26:15;11.10;99.90
21417;DHT22;10869;52.238;10.716;2022-09-17T03:28:41;11.10;99.90
21417;DHT22;10869;52.238;10.716;2022-09-17T03:31:07;11.00;99.90
21417;DHT22;10869;52.238;10.716;2022-09-17T03:33:32;11.10;99.90
21417;DHT22;10869;52.238;10.716;2022-09-17T03:35:59;11.10;99.90
21417;DHT22;10869;52.238;10.716;2022-09-17T03:38:24;11.00;99.90
21417;DHT22;10869;52.238;10.716;2022-09-17T03:41:00;11.10;99.90
21417;DHT22;10869;52.238;10.716;2022-09-17T03:43:27;11.10;99.90
21417;DHT22;10869;52.238;10.716;2022-09-17T03:45:53;11.00;99.90
21417;DHT22;10869;52.238;10.716;2022-09-17T03:48:19;11.00;99.90
21417;DHT22;10869;52.238;10.716;2022-09-17T03:50:44;11.00;99.90
21417;DHT22;10869;52.238;10.716;2022-09-17T03:53:10;11.00;99.90
21417;DHT22;10869;52.238;10.716;2022-09-17T03:55:39;11.00;99.90
21417;DHT22;10869;52.238;10.716;2022-09-17T03:58:06;11.00;99.90
21417;DHT22;10869;52.238;10.716;2022-09-17T04:00:32;11.00;99.90
21417;DHT22;10869;52.238;10.716;2022-09-17T04:02:58;10.90;99.90
21417;DHT22;10869;52.238;10.716;2022-09-17T04:05:24;10.90;99.90
21417;DHT22;10869;52.238;10.716;2022-09-17T04:07:49;10.90;99.90
21417;DHT22;10869;52.238;10.716;2022-09-17T04:10:15;10.90;99.90
21417;DHT22;10869;52.238;10.716;2022-09-17T04:12:41;10.90;99.90
21417;DHT22;10869;52.238;10.716;2022-09-17T04:15:07;11.00;99.90
21417;DHT22;10869;52.238;10.716;2022-09-17T04:17:33;10.90;99.90
21417;DHT22;10869;52.238;10.716;2022-09-17T04:19:59;10.90;99.90
21417;DHT22;10869;52.238;10.716;2022-09-17T04:22:25;10.90;99.90
21417;DHT22;10869;52.238;10.716;2022-09-17T04:24:51;10.90;99.90
21417;DHT22;10869;52.238;10.716;2022-09-17T04:27:17;10.90;99.90
21417;DHT22;10869;52.238;10.716;2022-09-17T04:29:42;10.90;99.90
21417;DHT22;10869;52.238;10.716;2022-09-17T04:32:08;10.90;99.90
21417;DHT22;10869;52.238;10.716;2022-09-17T04:34:34;10.90;99.90
21417;DHT22;10869;52.238;10.716;2022-09-17T04:37:00;10.90;99.90
21417;DHT22;10869;52.238;10.716;2022-09-17T04:39:25;10.90;99.90
21417;DHT22;10869;52.238;10.716;2022-09-17T04:41:51;10.90;99.90
21417;DHT22;10869;52.238;10.716;2022-09-17T04:44:17;10.90;99.90
21417;DHT22;10869;52.238;10.716;2022-09-17T04:46:43;10.90;99.90
21417;DHT22;10869;52.238;10.716;2022-09-17T04:49:08;10.90;99.90
21417;DHT22;10869;52.238;10.716;2022-09-17T04:51:35;10.90;99.90
21417;DHT22;10869;52.238;10.716;2022-09-17T04:54:01;10.80;99.90
21417;DHT22;10869;52.238;10.716;2022-09-17T04:56:27;10.80;99.90
21417;DHT22;10869;52.238;10.716;2022-09-17T04:58:53;10.80;99.90
21417;DHT22;10869;52.238;10.716;2022-09-17T05:01:18;10.80;99.90
21417;DHT22;10869;52.238;10.716;2022-09-17T05:03:44;10.80;99.90
21417;DHT22;10869;52.238;10.716;2022-09-17T05:06:11;10.80;99.90
21417;DHT22;10869;52.238;10.716;2022-09-17T05:08:36;10.80;99.90
21417;DHT22;10869;52.238;10.716;2022-09-17T05:11:02;10.80;99.90
21417;DHT22;10869;52.238;10.716;2022-09-17T05:13:28;10.80;99.90
21417;DHT22;10869;52.238;10.716;2022-09-17T05:15:54;10.80;99.90
21417;DHT22;10869;52.238;10.716;2022-09-17T05:18:23;10.80;99.90
21417;DHT22;10869;52.238;10.716;2022-09-17T05:20:49;10.80;99.90
21417;DHT22;10869;52.238;10.716;2022-09-17T05:23:25;10.80;99.90
21417;DHT22;10869;52.238;10.716;2022-09-17T05:25:51;10.90;99.90
21417;DHT22;10869;52.238;10.716;2022-09-17T05:28:17;10.90;99.90
21417;DHT22;10869;52.238;10.716;2022-09-17T05:30:43;10.90;99.90
21417;DHT22;10869;52.238;10.716;2022-09-17T05:33:09;10.90;99.90
21417;DHT22;10869;52.238;10.716;2022-09-17T05:35:35;10.80;99.90
21417;DHT22;10869;52.238;10.716;2022-09-17T05:38:03;10.90;99.90
21417;DHT22;10869;52.238;10.716;2022-09-17T05:40:29;10.90;99.90
21417;DHT22;10869;52.238;10.716;2022-09-17T05:43:01;10.90;99.90
21417;DHT22;10869;52.238;10.716;2022-09-17T05:45:32;10.90;99.90
21417;DHT22;10869;52.238;10.716;2022-09-17T05:47:59;10.90;99.90
21417;DHT22;10869;52.238;10.716;2022-09-17T05:50:27;10.90;99.90
21417;DHT22;10869;52.238;10.716;2022-09-17T05:52:53;10.90;99.90
21417;DHT22;10869;52.238;10.716;2022-09-17T05:55:21;10.90;99.90
21417;DHT22;10869;52.238;10.716;2022-09-17T06:01:09;10.80;99.90
21417;DHT22;10869;52.238;10.716;2022-09-17T06:03:40;10.80;99.90
21417;DHT22;10869;52.238;10.716;2022-09-17T06:06:06;10.80;99.90
21417;DHT22;10869;52.238;10.716;2022-09-17T06:08:33;10.80;99.90
21417;DHT22;10869;52.238;10.716;2022-09-17T06:11:05;10.80;99.90
21417;DHT22;10869;52.238;10.716;2022-09-17T06:16:54;10.80;99.90
21417;DHT22;10869;52.238;10.716;2022-09-17T06:22:42;10.70;99.90
21417;DHT22;10869;52.238;10.716;2022-09-17T06:28:31;10.70;99.90
21417;DHT22;10869;52.238;10.716;2022-09-17T06:34:19;10.70;99.90
21417;DHT22;10869;52.238;10.716;2022-09-17T06:40:07;10.70;99.90
21417;DHT22;10869;52.238;10.716;2022-09-17T06:42:33;10.80;99.90
21417;DHT22;10869;52.238;10.716;2022-09-17T06:44:59;10.80;99.90
21417;DHT22;10869;52.238;10.716;2022-09-17T06:47:24;10.80;99.90
21417;DHT22;10869;52.238;10.716;2022-09-17T06:49:50;10.80;99.90
21417;DHT22;10869;52.238;10.716;2022-09-17T06:52:17;10.90;99.90
21417;DHT22;10869;52.238;10.716;2022-09-17T06:54:42;10.90;99.90
21417;DHT22;10869;52.238;10.716;2022-09-17T06:57:08;10.90;99.90
21417;DHT22;10869;52.238;10.716;2022-09-17T06:59:34;10.90;99.90
21417;DHT22;10869;52.238;10.716;2022-09-17T07:01:59;11.00;99.90
21417;DHT22;10869;52.238;10.716;2022-09-17T07:04:25;11.10;99.90
21417;DHT22;10869;52.238;10.716;2022-09-17T07:06:52;11.20;99.90
21417;DHT22;10869;52.238;10.716;2022-09-17T07:09:18;11.20;99.90
21417;DHT22;10869;52.238;10.716;2022-09-17T07:11:43;11.30;99.90
21417;DHT22;10869;52.238;10.716;2022-09-17T07:14:09;11.30;99.90
21417;DHT22;10869;52.238;10.716;2022-09-17T07:16:35;11.30;99.90
21417;DHT22;10869;52.238;10.716;2022-09-17T07:19:04;11.40;99.90
21417;DHT22;10869;52.238;10.716;2022-09-17T07:21:30;11.40;99.90
21417;DHT22;10869;52.238;10.716;2022-09-17T07:23:56;11.40;99.90
21417;DHT22;10869;52.238;10.716;2022-09-17T07:26:34;11.50;99.90
21417;DHT22;10869;52.238;10.716;2022-09-17T07:29:00;11.60;99.90
21417;DHT22;10869;52.238;10.716;2022-09-17T07:31:26;11.60;99.90
21417;DHT22;10869;52.238;10.716;2022-09-17T07:34:02;11.70;99.90
21417;DHT22;10869;52.238;10.716;2022-09-17T07:36:28;11.80;99.90
21417;DHT22;10869;52.238;10.716;2022-09-17T07:38:54;11.80;99.90
21417;DHT22;10869;52.238;10.716;2022-09-17T07:41:20;11.90;99.90
21417;DHT22;10869;52.238;10.716;2022-09-17T07:43:45;11.90;99.90
21417;DHT22;10869;52.238;10.716;2022-09-17T07:46:16;11.90;99.90
21417;DHT22;10869;52.238;10.716;2022-09-17T07:48:42;11.90;99.90
21417;DHT22;10869;52.238;10.716;2022-09-17T07:51:12;11.80;99.90
21417;DHT22;10869;52.238;10.716;2022-09-17T07:53:39;11.80;99.90
21417;DHT22;10869;52.238;10.716;2022-09-17T07:56:04;11.80;99.90
21417;DHT22;10869;52.238;10.716;2022-09-17T07:58:32;11.80;99.90
21417;DHT22;10869;52.238;10.716;2022-09-17T08:01:03;11.80;99.90
21417;DHT22;10869;52.238;10.716;2022-09-17T08:03:30;12.00;99.90
21417;DHT22;10869;52.238;10.716;2022-09-17T08:06:07;12.20;99.90
21417;DHT22;10869;52.238;10.716;2022-09-17T08:08:34;12.40;99.90
21417;DHT22;10869;52.238;10.716;2022-09-17T08:11:28;12.50;99.90
21417;DHT22;10869;52.238;10.716;2022-09-17T08:17:16;12.20;99.90
21417;DHT22;10869;52.238;10.716;2022-09-17T08:23:03;12.40;99.90
21417;DHT22;10869;52.238;10.716;2022-09-17T08:25:29;12.50;99.90
21417;DHT22;10869;52.238;10.716;2022-09-17T08:27:55;12.70;99.90
21417;DHT22;10869;52.238;10.716;2022-09-17T08:30:21;12.90;99.90
21417;DHT22;10869;52.238;10.716;2022-09-17T08:32:47;13.00;99.90
21417;DHT22;10869;52.238;10.716;2022-09-17T08:35:13;13.00;99.90
21417;DHT22;10869;52.238;10.716;2022-09-17T08:37:41;13.10;99.90
21417;DHT22;10869;52.238;10.716;2022-09-17T08:40:14;13.10;99.90
21417;DHT22;10869;52.238;10.716;2022-09-17T08:42:48;13.10;99.90
21417;DHT22;10869;52.238;10.716;2022-09-17T08:45:17;13.30;99.90
21417;DHT22;10869;52.238;10.716;2022-09-17T08:47:45;13.40;99.90
21417;DHT22;10869;52.238;10.716;2022-09-17T08:50:26;13.40;99.90
21417;DHT22;10869;52.238;10.716;2022-09-17T08:59:25;13.60;99.90
21417;DHT22;10869;52.238;10.716;2022-09-17T09:05:17;14.00;99.90
21417;DHT22;10869;52.238;10.716;2022-09-17T09:11:15;14.50;99.90
21417;DHT22;10869;52.238;10.716;2022-09-17T09:13:50;14.70;99.90
21417;DHT22;10869;52.238;10.716;2022-09-17T09:16:29;14.90;99.90
21417;DHT22;10869;52.238;10.716;2022-09-17T09:19:13;15.10;99.90
21417;DHT22;10869;52.238;10.716;2022-09-17T09:28:05;15.10;99.90
21417;DHT22;10869;52.238;10.716;2022-09-17T09:31:06;15.10;99.90
21417;DHT22;10869;52.238;10.716;2022-09-17T09:34:04;15.00;99.90
21417;DHT22;10869;52.238;10.716;2022-09-17T09:36:32;15.00;99.90
21417;DHT22;10869;52.238;10.716;2022-09-17T09:39:34;14.60;99.90
21417;DHT22;10869;52.238;10.716;2022-09-17T09:42:04;14.50;99.90
21417;DHT22;10869;52.238;10.716;2022-09-17T09:44:33;14.50;99.90
21417;DHT22;10869;52.238;10.716;2022-09-17T09:55:51;14.90;99.90
21417;DHT22;10869;52.238;10.716;2022-09-17T09:58:34;14.60;99.90
21417;DHT22;10869;52.238;10.716;2022-09-17T10:01:01;14.40;99.90
21417;DHT22;10869;52.238;10.716;2022-09-17T10:03:29;14.20;99.90
21417;DHT22;10869;52.238;10.716;2022-09-17T10:05:57;14.10;99.90
21417;DHT22;10869;52.238;10.716;2022-09-17T10:08:24;13.90;99.90
21417;DHT22;10869;52.238;10.716;2022-09-17T10:13:20;14.50;99.90
21417;DHT22;10869;52.238;10.716;2022-09-17T10:15:46;14.40;99.90
21417;DHT22;10869;52.238;10.716;2022-09-17T10:18:20;14.20;99.90
21417;DHT22;10869;52.238;10.716;2022-09-17T10:24:27;14.10;99.90
21417;DHT22;10869;52.238;10.716;2022-09-17T10:27:05;14.00;99.90
21417;DHT22;10869;52.238;10.716;2022-09-17T10:33:30;13.90;99.90
21417;DHT22;10869;52.238;10.716;2022-09-17T10:36:06;13.70;99.90
21417;DHT22;10869;52.238;10.716;2022-09-17T10:44:24;14.50;99.90
21417;DHT22;10869;52.238;10.716;2022-09-17T10:46:51;15.00;99.90
21417;DHT22;10869;52.238;10.716;2022-09-17T10:52:37;16.20;99.50
21417;DHT22;10869;52.238;10.716;2022-09-17T10:55:35;16.60;97.70
21417;DHT22;10869;52.238;10.716;2022-09-17T11:00:44;15.80;97.70
21417;DHT22;10869;52.238;10.716;2022-09-17T11:06:16;16.50;97.80
21417;DHT22;10869;52.238;10.716;2022-09-17T11:09:07;16.80;97.00
21417;DHT22;10869;52.238;10.716;2022-09-17T11:18:21;16.40;98.00
21417;DHT22;10869;52.238;10.716;2022-09-17T11:27:45;16.60;96.80
21417;DHT22;10869;52.238;10.716;2022-09-17T11:30:18;16.30;96.90
21417;DHT22;10869;52.238;10.716;2022-09-17T11:36:15;16.60;95.80
21417;DHT22;10869;52.238;10.716;2022-09-17T11:42:09;17.10;93.80
21417;DHT22;10869;52.238;10.716;2022-09-17T11:44:55;17.10;93.20
21417;DHT22;10869;52.238;10.716;2022-09-17T11:50:56;17.60;92.30
21417;DHT22;10869;52.238;10.716;2022-09-17T11:53:35;17.30;93.20
21417;DHT22;10869;52.238;10.716;2022-09-17T11:56:22;17.50;92.70
21417;DHT22;10869;52.238;10.716;2022-09-17T12:01:39;17.20;92.20
21417;DHT22;10869;52.238;10.716;2022-09-17T12:13:13;14.50;99.40
21417;DHT22;10869;52.238;10.716;2022-09-17T12:15:44;14.10;99.90
21417;DHT22;10869;52.238;10.716;2022-09-17T12:18:27;13.90;99.90
21417;DHT22;10869;52.238;10.716;2022-09-17T12:20:58;13.80;99.90
21417;DHT22;10869;52.238;10.716;2022-09-17T12:23:36;13.60;99.90
21417;DHT22;10869;52.238;10.716;2022-09-17T12:26:25;13.40;99.90
21417;DHT22;10869;52.238;10.716;2022-09-17T12:29:10;13.20;99.90
21417;DHT22;10869;52.238;10.716;2022-09-17T12:37:56;12.10;99.90
21417;DHT22;10869;52.238;10.716;2022-09-17T12:44:09;11.70;99.90
21417;DHT22;10869;52.238;10.716;2022-09-17T12:56:31;11.50;99.90
21417;DHT22;10869;52.238;10.716;2022-09-17T13:04:59;11.60;99.90
21417;DHT22;10869;52.238;10.716;2022-09-17T13:12:31;11.30;99.90
21417;DHT22;10869;52.238;10.716;2022-09-17T13:18:05;11.20;99.90
21417;DHT22;10869;52.238;10.716;2022-09-17T13:23:06;10.90;99.90
21417;DHT22;10869;52.238;10.716;2022-09-17T13:25:32;11.00;99.90
21417;DHT22;10869;52.238;10.716;2022-09-17T13:34:00;10.90;99.90
21417;DHT22;10869;52.238;10.716;2022-09-17T13:39:49;10.80;99.90
21417;DHT22;10869;52.238;10.716;2022-09-17T13:42:30;10.80;99.90
21417;DHT22;10869;52.238;10.716;2022-09-17T13:48:24;10.70;99.90
21417;DHT22;10869;52.238;10.716;2022-09-17T13:50:51;10.70;99.90
21417;DHT22;10869;52.238;10.716;2022-09-17T13:53:19;10.70;99.90
21417;DHT22;10869;52.238;10.716;2022-09-17T13:55:58;10.60;99.90
21417;DHT22;10869;52.238;10.716;2022-09-17T13:58:29;10.60;99.90
21417;DHT22;10869;52.238;10.716;2022-09-17T14:10:34;10.40;99.90
21417;DHT22;10869;52.238;10.716;2022-09-17T14:13:25;10.30;99.90
21417;DHT22;10869;52.238;10.716;2022-09-17T14:15:58;10.30;99.90
21417;DHT22;10869;52.238;10.716;2022-09-17T14:21:05;10.30;99.90
21417;DHT22;10869;52.238;10.716;2022-09-17T14:23:42;10.30;99.90
21417;DHT22;10869;52.238;10.716;2022-09-17T14:35:56;10.20;99.90
21417;DHT22;10869;52.238;10.716;2022-09-17T14:54:08;10.10;99.90
21417;DHT22;10869;52.238;10.716;2022-09-17T15:02:55;10.00;99.90
21417;DHT22;10869;52.238;10.716;2022-09-17T15:05:30;10.00;99.90
21417;DHT22;10869;52.238;10.716;2022-09-17T15:11:21;9.90;99.90
21417;DHT22;10869;52.238;10.716;2022-09-17T15:13:50;9.90;99.90
21417;DHT22;10869;52.238;10.716;2022-09-17T15:16:27;9.80;99.90
21417;DHT22;10869;52.238;10.716;2022-09-17T15:19:09;9.80;99.90
21417;DHT22;10869;52.238;10.716;2022-09-17T15:21:48;9.80;99.90
21417;DHT22;10869;52.238;10.716;2022-09-17T15:27:23;9.80;99.90
21417;DHT22;10869;52.238;10.716;2022-09-17T15:33:18;9.90;99.90
21417;DHT22;10869;52.238;10.716;2022-09-17T15:36:20;9.80;99.90
21417;DHT22;10869;52.238;10.716;2022-09-17T15:38:47;9.80;99.90
21417;DHT22;10869;52.238;10.716;2022-09-17T15:41:54;9.80;99.90
21417;DHT22;10869;52.238;10.716;2022-09-17T15:44:22;9.80;99.90
21417;DHT22;10869;52.238;10.716;2022-09-17T15:46:49;9.80;99.90
21417;DHT22;10869;52.238;10.716;2022-09-17T15:52:34;9.80;99.90
21417;DHT22;10869;52.238;10.716;2022-09-17T15:55:00;9.80;99.90
21417;DHT22;10869;52.238;10.716;2022-09-17T15:57:28;9.80;99.90
21417;DHT22;10869;52.238;10.716;2022-09-17T15:59:59;9.80;99.90
21417;DHT22;10869;52.238;10.716;2022-09-17T16:02:31;9.90;99.90
21417;DHT22;10869;52.238;10.716;2022-09-17T16:05:44;9.90;99.90
21417;DHT22;10869;52.238;10.716;2022-09-17T16:08:18;9.90;99.90
21417;DHT22;10869;52.238;10.716;2022-09-17T16:10:47;9.80;99.90
21417;DHT22;10869;52.238;10.716;2022-09-17T16:13:13;9.80;99.90
21417;DHT22;10869;52.238;10.716;2022-09-17T16:15:39;9.80;99.90
21417;DHT22;10869;52.238;10.716;2022-09-17T16:18:05;9.80;99.90
21417;DHT22;10869;52.238;10.716;2022-09-17T16:20:31;9.80;99.90
21417;DHT22;10869;52.238;10.716;2022-09-17T16:22:57;9.80;99.90
21417;DHT22;10869;52.238;10.716;2022-09-17T16:25:24;9.80;99.90
21417;DHT22;10869;52.238;10.716;2022-09-17T16:31:13;9.80;99.90
21417;DHT22;10869;52.238;10.716;2022-09-17T16:37:01;9.80;99.90
21417;DHT22;10869;52.238;10.716;2022-09-17T16:39:27;9.80;99.90
21417;DHT22;10869;52.238;10.716;2022-09-17T16:41:52;9.70;99.90
21417;DHT22;10869;52.238;10.716;2022-09-17T16:47:41;9.70;99.90
21417;DHT22;10869;52.238;10.716;2022-09-17T16:53:29;9.70;99.90
21417;DHT22;10869;52.238;10.716;2022-09-17T16:55:54;9.70;99.90
21417;DHT22;10869;52.238;10.716;2022-09-17T17:01:45;9.70;99.90
21417;DHT22;10869;52.238;10.716;2022-09-17T17:07:22;9.70;99.90
21417;DHT22;10869;52.238;10.716;2022-09-17T17:09:48;9.70;99.90
21417;DHT22;10869;52.238;10.716;2022-09-17T17:12:14;9.70;99.90
21417;DHT22;10869;52.238;10.716;2022-09-17T17:14:40;9.70;99.90
21417;DHT22;10869;52.238;10.716;2022-09-17T17:17:06;9.80;99.90
21417;DHT22;10869;52.238;10.716;2022-09-17T17:19:31;9.80;99.90
21417;DHT22;10869;52.238;10.716;2022-09-17T17:21:59;9.90;99.90
21417;DHT22;10869;52.238;10.716;2022-09-17T17:24:24;9.90;99.90
21417;DHT22;10869;52.238;10.716;2022-09-17T17:30:12;9.90;99.90
21417;DHT22;10869;52.238;10.716;2022-09-17T17:32:42;9.90;99.90
21417;DHT22;10869;52.238;10.716;2022-09-17T17:35:09;9.90;99.90
21417;DHT22;10869;52.238;10.716;2022-09-17T17:41:19;9.90;99.90
21417;DHT22;10869;52.238;10.716;2022-09-17T17:43:47;9.90;99.90
21417;DHT22;10869;52.238;10.716;2022-09-17T17:46:13;9.90;99.90
21417;DHT22;10869;52.238;10.716;2022-09-17T17:48:40;9.90;99.90
21417;DHT22;10869;52.238;10.716;2022-09-17T17:51:09;9.90;99.90
21417;DHT22;10869;52.238;10.716;2022-09-17T17:53:36;9.90;99.90
21417;DHT22;10869;52.238;10.716;2022-09-17T17:56:05;9.90;99.90
21417;DHT22;10869;52.238;10.716;2022-09-17T17:58:32;9.90;99.90
21417;DHT22;10869;52.238;10.716;2022-09-17T18:00:58;9.90;99.90
21417;DHT22;10869;52.238;10.716;2022-09-17T18:03:24;9.90;99.90
21417;DHT22;10869;52.238;10.716;2022-09-17T18:09:19;9.90;99.90
21417;DHT22;10869;52.238;10.716;2022-09-17T18:11:45;9.90;99.90
21417;DHT22;10869;52.238;10.716;2022-09-17T18:14:12;9.90;99.90
21417;DHT22;10869;52.238;10.716;2022-09-17T18:16:38;9.90;99.90
21417;DHT22;10869;52.238;10.716;2022-09-17T18:19:04;9.90;99.90
21417;DHT22;10869;52.238;10.716;2022-09-17T18:21:30;9.90;99.90
21417;DHT22;10869;52.238;10.716;2022-09-17T18:23:56;9.90;99.90
21417;DHT22;10869;52.238;10.716;2022-09-17T18:29:44;9.90;99.90
21417;DHT22;10869;52.238;10.716;2022-09-17T18:32:10;9.90;99.90
21417;DHT22;10869;52.238;10.716;2022-09-17T18:34:36;9.90;99.90
21417;DHT22;10869;52.238;10.716;2022-09-17T18:37:02;9.90;99.90
21417;DHT22;10869;52.238;10.716;2022-09-17T18:39:28;9.90;99.90
21417;DHT22;10869;52.238;10.716;2022-09-17T18:41:54;9.90;99.90
21417;DHT22;10869;52.238;10.716;2022-09-17T18:44:20;9.80;99.90
21417;DHT22;10869;52.238;10.716;2022-09-17T18:46:46;9.90;99.90
21417;DHT22;10869;52.238;10.716;2022-09-17T18:49:13;9.80;99.90
21417;DHT22;10869;52.238;10.716;2022-09-17T18:51:40;9.80;99.90
21417;DHT22;10869;52.238;10.716;2022-09-17T18:54:08;9.80;99.90
21417;DHT22;10869;52.238;10.716;2022-09-17T18:56:34;9.70;99.90
21417;DHT22;10869;52.238;10.716;2022-09-17T18:59:01;9.80;99.90
21417;DHT22;10869;52.238;10.716;2022-09-17T19:01:28;9.80;99.90
21417;DHT22;10869;52.238;10.716;2022-09-17T19:03:55;9.80;99.90
21417;DHT22;10869;52.238;10.716;2022-09-17T19:09:43;9.80;99.90
21417;DHT22;10869;52.238;10.716;2022-09-17T19:18:31;9.80;99.90
21417;DHT22;10869;52.238;10.716;2022-09-17T19:21:02;9.70;99.90
21417;DHT22;10869;52.238;10.716;2022-09-17T19:26:50;9.70;99.90
21417;DHT22;10869;52.238;10.716;2022-09-17T19:29:15;9.80;99.90
21417;DHT22;10869;52.238;10.716;2022-09-17T19:31:41;9.80;99.90
21417;DHT22;10869;52.238;10.716;2022-09-17T19:34:07;9.80;99.90
21417;DHT22;10869;52.238;10.716;2022-09-17T19:36:33;9.80;99.90
21417;DHT22;10869;52.238;10.716;2022-09-17T19:38:59;9.80;99.90
21417;DHT22;10869;52.238;10.716;2022-09-17T19:41:24;9.80;99.90
21417;DHT22;10869;52.238;10.716;2022-09-17T19:43:51;9.80;99.90
21417;DHT22;10869;52.238;10.716;2022-09-17T19:46:20;9.70;99.90
21417;DHT22;10869;52.238;10.716;2022-09-17T19:48:47;9.80;99.90
21417;DHT22;10869;52.238;10.716;2022-09-17T19:51:14;9.80;99.90
21417;DHT22;10869;52.238;10.716;2022-09-17T19:53:40;9.80;99.90
21417;DHT22;10869;52.238;10.716;2022-09-17T19:56:11;9.70;99.90
21417;DHT22;10869;52.238;10.716;2022-09-17T19:58:40;9.80;99.90
21417;DHT22;10869;52.238;10.716;2022-09-17T20:01:06;9.80;99.90
21417;DHT22;10869;52.238;10.716;2022-09-17T20:03:32;9.80;99.90
21417;DHT22;10869;52.238;10.716;2022-09-17T20:06:00;9.80;99.90
21417;DHT22;10869;52.238;10.716;2022-09-17T20:08:26;9.80;99.90
21417;DHT22;10869;52.238;10.716;2022-09-17T20:11:09;9.80;99.90
21417;DHT22;10869;52.238;10.716;2022-09-17T20:13:35;9.80;99.90
21417;DHT22;10869;52.238;10.716;2022-09-17T20:16:08;9.80;99.90
21417;DHT22;10869;52.238;10.716;2022-09-17T20:18:37;9.80;99.90
21417;DHT22;10869;52.238;10.716;2022-09-17T20:23:40;9.80;99.90
21417;DHT22;10869;52.238;10.716;2022-09-17T20:26:06;9.80;99.90
21417;DHT22;10869;52.238;10.716;2022-09-17T20:32:02;9.80;99.90
21417;DHT22;10869;52.238;10.716;2022-09-17T20:34:31;9.80;99.90
21417;DHT22;10869;52.238;10.716;2022-09-17T20:36:56;9.80;99.90
21417;DHT22;10869;52.238;10.716;2022-09-17T20:39:22;9.80;99.90
21417;DHT22;10869;52.238;10.716;2022-09-17T20:41:48;9.80;99.90
21417;DHT22;10869;52.238;10.716;2022-09-17T20:44:14;9.90;99.90
21417;DHT22;10869;52.238;10.716;2022-09-17T20:50:02;9.90;99.90
21417;DHT22;10869;52.238;10.716;2022-09-17T20:52:28;9.80;99.90
21417;DHT22;10869;52.238;10.716;2022-09-17T20:54:53;9.80;99.90
21417;DHT22;10869;52.238;10.716;2022-09-17T20:57:19;9.80;99.90
21417;DHT22;10869;52.238;10.716;2022-09-17T20:59:45;9.70;99.90
21417;DHT22;10869;52.238;10.716;2022-09-17T21:02:19;9.80;99.90
21417;DHT22;10869;52.238;10.716;2022-09-17T21:08:07;9.80;99.90
21417;DHT22;10869;52.238;10.716;2022-09-17T21:10:33;9.80;99.90
21417;DHT22;10869;52.238;10.716;2022-09-17T21:12:59;9.70;99.90
21417;DHT22;10869;52.238;10.716;2022-09-17T21:15:25;9.80;99.90
21417;DHT22;10869;52.238;10.716;2022-09-17T21:17:59;9.80;99.90
21417;DHT22;10869;52.238;10.716;2022-09-17T21:20:25;9.80;99.90
21417;DHT22;10869;52.238;10.716;2022-09-17T21:22:51;9.80;99.90
21417;DHT22;10869;52.238;10.716;2022-09-17T21:25:16;9.80;99.90
21417;DHT22;10869;52.238;10.716;2022-09-17T21:27:42;9.80;99.90
21417;DHT22;10869;52.238;10.716;2022-09-17T21:30:08;9.80;99.90
21417;DHT22;10869;52.238;10.716;2022-09-17T21:32:35;9.80;99.90
21417;DHT22;10869;52.238;10.716;2022-09-17T21:35:03;9.80;99.90
21417;DHT22;10869;52.238;10.716;2022-09-17T21:37:29;9.80;99.90
21417;DHT22;10869;52.238;10.716;2022-09-17T21:39:54;9.70;99.90
21417;DHT22;10869;52.238;10.716;2022-09-17T21:42:25;9.70;99.90
21417;DHT22;10869;52.238;10.716;2022-09-17T21:45:05;9.70;99.90
21417;DHT22;10869;52.238;10.716;2022-09-17T21:47:51;9.70;99.90
21417;DHT22;10869;52.238;10.716;2022-09-17T21:50:17;9.70;99.90
21417;DHT22;10869;52.238;10.716;2022-09-17T21:52:42;9.60;99.90
21417;DHT22;10869;52.238;10.716;2022-09-17T21:55:08;9.60;99.90
21417;DHT22;10869;52.238;10.716;2022-09-17T21:57:34;9.60;99.90
21417;DHT22;10869;52.238;10.716;2022-09-17T22:00:00;9.60;99.90
21417;DHT22;10869;52.238;10.716;2022-09-17T22:02:26;9.60;99.90
21417;DHT22;10869;52.238;10.716;2022-09-17T22:04:52;9.60;99.90
21417;DHT22;10869;52.238;10.716;2022-09-17T22:07:18;9.50;99.90
21417;DHT22;10869;52.238;10.716;2022-09-17T22:09:44;9.50;99.90
21417;DHT22;10869;52.238;10.716;2022-09-17T22:12:09;9.50;99.90
21417;DHT22;10869;52.238;10.716;2022-09-17T22:14:35;9.40;99.90
21417;DHT22;10869;52.238;10.716;2022-09-17T22:17:02;9.40;99.90
21417;DHT22;10869;52.238;10.716;2022-09-17T22:19:27;9.40;99.90
21417;DHT22;10869;52.238;10.716;2022-09-17T22:21:54;9.30;99.90
21417;DHT22;10869;52.238;10.716;2022-09-17T22:24:21;9.30;99.90
21417;DHT22;10869;52.238;10.716;2022-09-17T22:26:50;9.20;99.90
21417;DHT22;10869;52.238;10.716;2022-09-17T22:29:18;9.20;99.90
21417;DHT22;10869;52.238;10.716;2022-09-17T22:31:45;9.20;99.90
21417;DHT22;10869;52.238;10.716;2022-09-17T22:34:17;9.20;99.90
21417;DHT22;10869;52.238;10.716;2022-09-17T22:40:05;9.20;99.90
21417;DHT22;10869;52.238;10.716;2022-09-17T22:42:31;9.10;99.90
21417;DHT22;10869;52.238;10.716;2022-09-17T22:44:57;9.10;99.90
21417;DHT22;10869;52.238;10.716;2022-09-17T22:47:23;9.10;99.90
21417;DHT22;10869;52.238;10.716;2022-09-17T22:49:49;9.10;99.90
21417;DHT22;10869;52.238;10.716;2022-09-17T22:52:14;9.10;99.90
21417;DHT22;10869;52.238;10.716;2022-09-17T22:54:40;9.10;99.90
21417;DHT22;10869;52.238;10.716;2022-09-17T22:57:06;9.10;99.90
21417;DHT22;10869;52.238;10.716;2022-09-17T22:59:32;9.00;99.90
